createdAt,value
2023-05-22T00:00:06.779Z,6.97
2023-05-22T00:02:35.022Z,6.78
2023-05-22T00:05:03.148Z,6.10
2023-05-22T00:07:32.762Z,6.78
2023-05-22T00:10:00.398Z,6.40
2023-05-22T00:12:29.028Z,6.07
2023-05-22T00:14:56.747Z,6.22
2023-05-22T00:17:25.469Z,5.78
2023-05-22T00:19:55.410Z,5.22
2023-05-22T00:22:23.194Z,6.15
2023-05-22T00:24:52.851Z,5.65
2023-05-22T00:27:20.937Z,5.97
2023-05-22T00:29:48.690Z,6.20
2023-05-22T00:32:16.640Z,6.13
2023-05-22T00:34:44.836Z,6.53
2023-05-22T00:37:12.768Z,6.68
2023-05-22T00:39:40.890Z,7.45
2023-05-22T00:42:10.312Z,7.30
2023-05-22T00:44:39.216Z,6.80
2023-05-22T00:47:06.966Z,7.25
2023-05-22T00:49:35.005Z,6.78
2023-05-22T00:52:03.207Z,6.53
2023-05-22T00:54:32.812Z,6.55
2023-05-22T00:57:01.080Z,6.55
2023-05-22T00:59:31.261Z,6.25
2023-05-22T01:01:59.641Z,6.07
2023-05-22T01:04:27.968Z,5.60
2023-05-22T01:06:55.761Z,6.13
2023-05-22T01:09:23.788Z,5.18
2023-05-22T01:11:58.968Z,5.68
2023-05-22T01:14:40.740Z,6.75
2023-05-22T01:19:54.502Z,5.63
2023-05-22T01:22:34.641Z,7.00
2023-05-22T01:25:28.537Z,5.97
2023-05-22T01:28:07.499Z,6.18
2023-05-22T01:31:00.872Z,5.90
2023-05-22T01:33:35.944Z,6.32
2023-05-22T01:36:07.735Z,6.75
2023-05-22T01:38:36.176Z,6.20
2023-05-22T01:41:04.752Z,6.45
2023-05-22T01:43:33.275Z,6.85
2023-05-22T01:46:02.349Z,6.97
2023-05-22T01:48:30.291Z,5.90
2023-05-22T01:51:05.492Z,6.28
2023-05-22T01:53:40.195Z,6.35
2023-05-22T01:56:12.331Z,6.70
2023-05-22T01:58:45.278Z,6.68
2023-05-22T02:01:17.706Z,7.60
2023-05-22T02:03:47.103Z,7.15
2023-05-22T02:06:15.329Z,7.68
2023-05-22T02:08:44.241Z,6.90
2023-05-22T02:11:13.790Z,7.28
2023-05-22T02:13:41.765Z,8.18
2023-05-22T02:16:10.258Z,8.18
2023-05-22T02:18:39.690Z,8.00
2023-05-22T02:21:08.804Z,8.27
2023-05-22T02:23:37.008Z,8.02
2023-05-22T02:26:05.258Z,8.60
2023-05-22T02:28:33.876Z,8.23
2023-05-22T02:31:01.865Z,8.30
2023-05-22T02:33:29.943Z,8.70
2023-05-22T02:35:58.977Z,8.63
2023-05-22T02:38:26.790Z,9.27
2023-05-22T02:40:56.230Z,8.60
2023-05-22T02:43:23.850Z,8.38
2023-05-22T02:45:51.580Z,8.00
2023-05-22T02:48:19.601Z,8.82
2023-05-22T02:50:47.224Z,8.07
2023-05-22T02:53:16.594Z,9.32
2023-05-22T02:55:44.339Z,9.00
2023-05-22T02:58:12.272Z,9.05
2023-05-22T03:00:40.356Z,9.07
2023-05-22T03:03:08.495Z,9.45
2023-05-22T03:05:36.938Z,9.65
2023-05-22T03:08:05.125Z,10.27
2023-05-22T03:10:34.337Z,10.00
2023-05-22T03:13:01.981Z,10.65
2023-05-22T03:15:30.088Z,10.85
2023-05-22T03:17:57.963Z,11.52
2023-05-22T03:20:25.605Z,10.70
2023-05-22T03:22:53.615Z,10.68
2023-05-22T03:25:21.308Z,9.10
2023-05-22T03:27:50.312Z,8.57
2023-05-22T03:30:18.336Z,7.82
2023-05-22T03:32:46.183Z,7.47
2023-05-22T03:35:13.945Z,7.60
2023-05-22T03:37:41.969Z,7.60
2023-05-22T03:40:10.509Z,7.45
2023-05-22T03:42:38.244Z,7.22
2023-05-22T03:45:08.868Z,6.95
2023-05-22T03:47:37.163Z,6.85
2023-05-22T03:50:05.383Z,6.82
2023-05-22T03:52:34.709Z,6.95
2023-05-22T03:55:02.699Z,7.03
2023-05-22T03:57:30.481Z,6.82
2023-05-22T03:59:58.231Z,7.32
2023-05-22T04:02:27.633Z,6.90
2023-05-22T04:04:55.335Z,7.00
2023-05-22T04:07:23.356Z,7.15
2023-05-22T04:09:51.142Z,5.85
2023-05-22T04:12:18.992Z,6.60
2023-05-22T04:14:46.806Z,6.80
2023-05-22T04:17:15.693Z,6.68
2023-05-22T04:19:44.754Z,6.03
2023-05-22T04:22:12.594Z,6.10
2023-05-22T04:24:40.546Z,6.20
2023-05-22T04:27:08.166Z,5.38
2023-05-22T04:29:38.781Z,5.80
2023-05-22T04:32:09.924Z,6.00
2023-05-22T04:34:38.137Z,6.22
2023-05-22T04:37:07.680Z,6.53
2023-05-22T04:39:35.429Z,5.88
2023-05-22T04:42:03.107Z,5.47
2023-05-22T04:44:30.892Z,5.85
2023-05-22T04:46:58.920Z,5.78
2023-05-22T04:49:26.806Z,5.60
2023-05-22T04:51:55.518Z,6.30
2023-05-22T04:54:24.749Z,6.13
2023-05-22T04:56:52.677Z,5.80
2023-05-22T04:59:20.437Z,5.75
2023-05-22T05:01:48.324Z,5.50
2023-05-22T05:04:16.041Z,5.60
2023-05-22T05:06:44.150Z,5.35
2023-05-22T05:09:11.908Z,5.85
2023-05-22T05:11:41.022Z,5.57
2023-05-22T05:14:08.942Z,5.80
2023-05-22T05:16:36.907Z,5.97
2023-05-22T05:19:04.603Z,5.60
2023-05-22T05:21:32.501Z,5.72
2023-05-22T05:24:00.802Z,5.68
2023-05-22T05:26:28.437Z,6.55
2023-05-22T05:28:57.725Z,5.45
2023-05-22T05:31:25.585Z,5.35
2023-05-22T05:33:58.071Z,5.63
2023-05-22T05:36:29.062Z,5.25
2023-05-22T05:38:56.747Z,5.68
2023-05-22T05:41:24.766Z,5.72
2023-05-22T05:43:52.864Z,7.10
2023-05-22T05:46:22.702Z,6.20
2023-05-22T05:48:50.430Z,6.05
2023-05-22T05:51:18.576Z,5.13
2023-05-22T05:53:46.473Z,5.85
2023-05-22T05:56:14.409Z,6.13
2023-05-22T05:58:42.403Z,5.20
2023-05-22T06:01:10.249Z,5.40
2023-05-22T06:03:39.471Z,5.30
2023-05-22T06:06:07.699Z,6.10
2023-05-22T06:08:35.384Z,5.97
2023-05-22T06:11:03.287Z,5.10
2023-05-22T06:13:31.509Z,5.85
2023-05-22T06:16:01.806Z,6.25
2023-05-22T06:18:30.932Z,6.32
2023-05-22T06:21:00.161Z,5.68
2023-05-22T06:23:27.835Z,5.20
2023-05-22T06:25:55.699Z,5.55
2023-05-22T06:28:23.688Z,5.35
2023-05-22T06:30:51.402Z,5.15
2023-05-22T06:33:19.355Z,5.35
2023-05-22T06:35:47.317Z,5.38
2023-05-22T06:38:16.637Z,4.95
2023-05-22T06:40:44.388Z,5.05
2023-05-22T06:43:12.422Z,4.97
2023-05-22T06:45:40.082Z,4.93
2023-05-22T06:48:08.049Z,5.15
2023-05-22T06:50:36.097Z,4.90
2023-05-22T06:53:03.832Z,5.38
2023-05-22T06:55:33.031Z,5.10
2023-05-22T06:58:00.894Z,4.90
2023-05-22T07:00:28.739Z,4.90
2023-05-22T07:02:56.893Z,4.75
2023-05-22T07:05:25.122Z,5.50
2023-05-22T07:07:54.021Z,5.22
2023-05-22T07:10:21.935Z,5.20
2023-05-22T07:12:51.202Z,4.60
2023-05-22T07:15:18.896Z,4.78
2023-05-22T07:17:46.886Z,4.63
2023-05-22T07:20:14.860Z,4.70
2023-05-22T07:22:42.823Z,3.97
2023-05-22T07:25:10.885Z,4.22
2023-05-22T07:27:38.866Z,4.53
2023-05-22T07:30:09.401Z,4.82
2023-05-22T07:35:05.371Z,4.57
2023-05-22T07:37:33.418Z,4.63
2023-05-22T07:40:01.236Z,5.30
2023-05-22T07:42:29.144Z,4.03
2023-05-22T07:44:56.868Z,4.22
2023-05-22T07:47:26.238Z,4.28
2023-05-22T07:49:54.200Z,4.75
2023-05-22T07:52:21.960Z,4.85
2023-05-22T07:54:49.897Z,5.00
2023-05-22T07:57:18.030Z,4.70
2023-05-22T07:59:45.884Z,4.65
2023-05-22T08:02:13.770Z,4.85
2023-05-22T08:04:45.476Z,4.82
2023-05-22T08:07:13.414Z,4.43
2023-05-22T08:09:41.310Z,4.22
2023-05-22T08:12:09.824Z,4.50
2023-05-22T08:14:38.069Z,4.82
2023-05-22T08:17:06.125Z,4.38
2023-05-22T08:19:34.238Z,4.50
2023-05-22T08:22:03.531Z,4.53
2023-05-22T08:24:31.610Z,4.60
2023-05-22T08:26:59.538Z,4.30
2023-05-22T08:29:28.405Z,4.40
2023-05-22T08:31:56.420Z,4.30
2023-05-22T08:34:24.640Z,4.85
2023-05-22T08:36:52.502Z,4.07
2023-05-22T08:39:21.827Z,4.78
2023-05-22T08:41:50.108Z,4.55
2023-05-22T08:44:17.942Z,4.75
2023-05-22T08:46:46.669Z,4.65
2023-05-22T08:49:16.332Z,4.63
2023-05-22T08:51:48.442Z,4.32
2023-05-22T08:54:18.937Z,4.88
2023-05-22T08:56:56.195Z,4.50
2023-05-22T08:59:25.721Z,4.50
2023-05-22T09:01:53.999Z,4.65
2023-05-22T09:04:22.959Z,4.80
2023-05-22T09:06:51.719Z,4.72
2023-05-22T09:09:19.500Z,5.03
2023-05-22T09:11:48.996Z,5.13
2023-05-22T09:14:18.851Z,5.30
2023-05-22T09:16:47.794Z,5.25
2023-05-22T09:19:16.212Z,5.68
2023-05-22T09:21:44.830Z,5.60
2023-05-22T09:24:12.608Z,5.47
2023-05-22T09:26:41.924Z,5.53
2023-05-22T09:29:11.395Z,5.20
2023-05-22T09:31:42.043Z,5.82
2023-05-22T09:34:10.643Z,5.30
2023-05-22T09:36:38.654Z,4.88
2023-05-22T09:39:06.512Z,5.13
2023-05-22T09:41:36.803Z,6.03
2023-05-22T09:44:16.452Z,4.90
2023-05-22T09:46:46.546Z,6.53
2023-05-22T09:49:16.523Z,5.25
2023-05-22T09:51:46.664Z,5.70
2023-05-22T09:54:16.250Z,5.10
2023-05-22T09:56:44.857Z,5.00
2023-05-22T09:59:19.122Z,3.97
2023-05-22T10:01:47.931Z,4.30
2023-05-22T10:04:18.808Z,4.47
2023-05-22T10:06:53.605Z,5.03
2023-05-22T10:09:24.512Z,5.10
2023-05-22T10:11:55.318Z,4.72
2023-05-22T10:14:25.353Z,5.60
2023-05-22T10:16:54.392Z,6.00
2023-05-22T10:19:23.430Z,4.97
2023-05-22T10:21:51.974Z,5.07
2023-05-22T10:24:20.485Z,5.70
2023-05-22T10:26:49.776Z,5.00
2023-05-22T10:29:25.807Z,5.03
2023-05-22T10:32:00.502Z,5.32
2023-05-22T10:34:34.585Z,5.90
2023-05-22T10:37:20.211Z,5.28
2023-05-22T10:40:02.873Z,5.40
2023-05-22T10:42:31.904Z,5.45
2023-05-22T10:45:01.819Z,5.82
2023-05-22T10:47:29.791Z,5.32
2023-05-22T10:50:06.883Z,6.10
2023-05-22T10:52:35.266Z,5.10
2023-05-22T10:55:07.385Z,4.95
2023-05-22T10:57:37.665Z,4.70
2023-05-22T11:00:11.994Z,4.85
2023-05-22T11:02:44.571Z,4.65
2023-05-22T11:05:33.653Z,4.50
2023-05-22T11:08:12.211Z,4.47
2023-05-22T11:10:53.087Z,4.57
2023-05-22T11:13:21.400Z,3.72
2023-05-22T11:15:50.644Z,3.92
2023-05-22T11:18:18.837Z,4.03
2023-05-22T11:20:47.392Z,4.22
2023-05-22T11:23:18.525Z,3.70
2023-05-22T11:25:46.471Z,3.47
2023-05-22T11:28:15.113Z,3.38
2023-05-22T11:30:43.404Z,3.88
2023-05-22T11:33:13.179Z,3.42
2023-05-22T11:35:42.416Z,3.50
2023-05-22T11:38:10.754Z,3.47
2023-05-22T11:40:38.789Z,3.60
2023-05-22T11:43:07.253Z,3.60
2023-05-22T11:45:37.929Z,3.60
2023-05-22T11:48:08.255Z,3.30
2023-05-22T11:53:08.716Z,3.28
2023-05-22T11:55:36.757Z,3.50
2023-05-22T11:58:04.346Z,3.80
2023-05-22T12:00:32.217Z,3.70
2023-05-22T12:02:59.872Z,3.92
2023-05-22T12:05:27.634Z,3.72
2023-05-22T12:07:56.738Z,3.85
2023-05-22T12:10:25.921Z,3.83
2023-05-22T12:12:55.210Z,4.13
2023-05-22T12:15:24.674Z,4.28
2023-05-22T12:17:55.927Z,4.60
2023-05-22T12:22:50.282Z,3.85
2023-05-22T12:25:19.475Z,4.50
2023-05-22T12:27:47.485Z,4.80
2023-05-22T12:30:15.784Z,3.80
2023-05-22T12:32:47.909Z,3.85
2023-05-22T12:35:16.539Z,3.72
2023-05-22T12:37:48.509Z,3.33
2023-05-22T12:40:16.102Z,3.00
2023-05-22T12:42:45.346Z,3.58
2023-05-22T12:45:13.001Z,3.65
2023-05-22T12:47:40.630Z,3.13
2023-05-22T12:50:09.485Z,3.30
2023-05-22T12:52:37.299Z,3.10
2023-05-22T12:55:05.242Z,3.67
2023-05-22T12:57:33.372Z,4.00
2023-05-22T13:00:02.377Z,5.00
2023-05-22T13:02:29.960Z,4.07
2023-05-22T13:04:57.480Z,4.05
2023-05-22T13:07:24.910Z,3.85
2023-05-22T13:09:52.374Z,4.00
2023-05-22T13:12:20.216Z,3.58
2023-05-22T13:14:47.822Z,3.03
2023-05-22T13:17:16.733Z,3.05
2023-05-22T13:19:44.290Z,2.75
2023-05-22T13:22:11.829Z,2.28
2023-05-22T13:24:39.285Z,2.92
2023-05-22T13:27:06.813Z,2.60
2023-05-22T13:29:34.525Z,2.30
2023-05-22T13:32:02.241Z,3.08
2023-05-22T13:34:31.378Z,2.55
2023-05-22T13:36:58.913Z,2.55
2023-05-22T13:39:26.189Z,2.88
2023-05-22T13:41:53.841Z,2.40
2023-05-22T13:44:21.439Z,2.42
2023-05-22T13:46:48.934Z,2.47
2023-05-22T13:49:16.729Z,2.38
2023-05-22T13:51:45.723Z,2.38
2023-05-22T13:54:13.004Z,2.70
2023-05-22T13:56:40.342Z,2.63
2023-05-22T13:59:09.480Z,2.95
2023-05-22T14:01:36.914Z,2.40
2023-05-22T14:04:04.917Z,2.70
2023-05-22T14:06:32.494Z,2.40
2023-05-22T14:09:02.404Z,2.50
2023-05-22T14:11:29.928Z,3.35
2023-05-22T14:13:57.491Z,2.30
2023-05-22T14:16:24.711Z,2.78
2023-05-22T14:18:52.325Z,2.65
2023-05-22T14:21:19.907Z,3.58
2023-05-22T14:23:47.265Z,3.00
2023-05-22T14:26:16.172Z,2.85
2023-05-22T14:28:43.954Z,3.25
2023-05-22T14:31:11.451Z,2.80
2023-05-22T14:33:38.975Z,3.15
2023-05-22T14:36:06.959Z,2.80
2023-05-22T14:38:34.715Z,3.38
2023-05-22T14:41:02.534Z,2.97
2023-05-22T14:43:31.485Z,3.50
2023-05-22T14:45:58.897Z,3.25
2023-05-22T14:48:26.878Z,3.15
2023-05-22T14:50:54.725Z,2.92
2023-05-22T14:53:22.267Z,3.20
2023-05-22T14:55:49.898Z,3.30
2023-05-22T14:58:17.847Z,3.40
2023-05-22T15:00:46.580Z,3.20
2023-05-22T15:03:14.320Z,3.10
2023-05-22T15:05:41.998Z,3.20
2023-05-22T15:08:09.504Z,3.33
2023-05-22T15:10:38.486Z,3.35
2023-05-22T15:13:05.991Z,3.22
2023-05-22T15:15:33.277Z,3.00
2023-05-22T15:18:02.298Z,3.22
2023-05-22T15:20:29.903Z,3.00
2023-05-22T15:22:57.624Z,3.25
2023-05-22T15:25:25.238Z,2.80
2023-05-22T15:27:52.898Z,2.78
2023-05-22T15:30:22.067Z,2.80
2023-05-22T15:32:49.674Z,2.78
2023-05-22T15:35:18.654Z,3.13
2023-05-22T15:37:46.152Z,3.53
2023-05-22T15:40:15.618Z,3.70
2023-05-22T15:42:43.186Z,3.38
2023-05-22T15:45:10.583Z,3.58
2023-05-22T15:47:38.158Z,3.28
2023-05-22T15:50:06.364Z,3.72
2023-05-22T15:52:35.441Z,3.35
2023-05-22T15:55:02.939Z,3.78
2023-05-22T15:57:31.144Z,3.95
2023-05-22T15:59:58.456Z,3.45
2023-05-22T16:02:25.910Z,3.80
2023-05-22T16:04:53.614Z,3.00
2023-05-22T16:07:20.947Z,3.22
2023-05-22T16:09:50.192Z,3.80
2023-05-22T16:12:18.346Z,3.15
2023-05-22T16:14:45.893Z,3.40
2023-05-22T16:17:13.508Z,3.03
2023-05-22T16:19:40.907Z,3.25
2023-05-22T16:22:08.617Z,3.10
2023-05-22T16:24:36.289Z,3.85
2023-05-22T16:27:06.010Z,3.03
2023-05-22T16:29:33.818Z,3.50
2023-05-22T16:32:01.394Z,3.25
2023-05-22T16:34:29.228Z,2.78
2023-05-22T16:36:56.514Z,2.72
2023-05-22T16:39:24.078Z,2.78
2023-05-22T16:41:53.659Z,3.30
2023-05-22T16:44:22.938Z,4.10
2023-05-22T16:46:50.359Z,4.15
2023-05-22T16:49:17.963Z,4.50
2023-05-22T16:51:45.345Z,4.25
2023-05-22T16:54:13.133Z,3.70
2023-05-22T16:56:40.789Z,3.60
2023-05-22T16:59:11.015Z,2.97
2023-05-22T17:01:43.234Z,2.63
2023-05-22T17:04:10.831Z,3.08
2023-05-22T17:06:38.284Z,2.92
2023-05-22T17:09:06.934Z,2.50
2023-05-22T17:11:34.505Z,3.28
2023-05-22T17:14:02.423Z,4.25
2023-05-22T17:16:33.449Z,3.88
2023-05-22T17:19:02.730Z,3.75
2023-05-22T17:21:30.474Z,3.35
2023-05-22T17:23:58.391Z,4.68
2023-05-22T17:26:26.497Z,3.80
2023-05-22T17:28:54.299Z,3.72
2023-05-22T17:31:22.140Z,3.92
2023-05-22T17:33:53.860Z,4.22
2023-05-22T17:36:23.298Z,3.83
2023-05-22T17:38:50.982Z,3.92
2023-05-22T17:41:18.533Z,3.58
2023-05-22T17:43:46.776Z,3.53
2023-05-22T17:46:14.430Z,4.47
2023-05-22T17:48:42.430Z,4.38
2023-05-22T17:51:10.657Z,4.30
2023-05-22T17:53:39.642Z,4.57
2023-05-22T17:56:07.304Z,9.50
2023-05-22T17:58:35.560Z,6.13
2023-05-22T18:01:03.198Z,4.97
2023-05-22T18:03:33.864Z,4.32
2023-05-22T18:06:01.813Z,3.90
2023-05-22T18:08:29.212Z,4.25
2023-05-22T18:10:58.408Z,4.28
2023-05-22T18:13:26.153Z,4.15
2023-05-22T18:15:54.006Z,4.03
2023-05-22T18:18:21.644Z,4.10
2023-05-22T18:20:49.422Z,4.00
2023-05-22T18:23:17.389Z,4.97
2023-05-22T18:25:44.868Z,4.00
2023-05-22T18:28:14.216Z,3.78
2023-05-22T18:30:43.325Z,3.47
2023-05-22T18:33:11.277Z,3.67
2023-05-22T18:35:39.276Z,3.00
2023-05-22T18:38:07.163Z,2.95
2023-05-22T18:40:34.975Z,2.90
2023-05-22T18:43:03.212Z,3.55
2023-05-22T18:45:32.558Z,3.13
2023-05-22T18:48:00.317Z,3.22
2023-05-22T18:50:28.354Z,3.40
2023-05-22T18:52:56.373Z,3.05
2023-05-22T18:55:24.498Z,3.53
2023-05-22T18:57:52.665Z,3.17
2023-05-22T19:00:29.060Z,3.60
2023-05-22T19:03:00.727Z,5.18
2023-05-22T19:05:28.329Z,6.43
2023-05-22T19:07:55.878Z,7.30
2023-05-22T19:10:23.890Z,6.80
2023-05-22T19:12:51.427Z,7.45
2023-05-22T19:15:19.432Z,6.80
2023-05-22T19:17:47.912Z,6.80
2023-05-22T19:20:16.983Z,6.88
2023-05-22T19:22:44.973Z,6.22
2023-05-22T19:25:13.186Z,6.60
2023-05-22T19:27:43.304Z,6.40
2023-05-22T19:30:11.828Z,6.10
2023-05-22T19:32:39.832Z,6.20
2023-05-22T19:35:08.130Z,4.72
2023-05-22T19:37:37.250Z,5.28
2023-05-22T19:40:05.804Z,4.60
2023-05-22T19:42:33.403Z,4.57
2023-05-22T19:45:00.761Z,4.93
2023-05-22T19:47:28.566Z,4.00
2023-05-22T19:49:56.110Z,4.20
2023-05-22T19:52:23.679Z,3.80
2023-05-22T19:54:53.116Z,4.40
2023-05-22T19:57:20.688Z,4.63
2023-05-22T19:59:48.155Z,4.90
2023-05-22T20:02:16.162Z,4.53
2023-05-22T20:04:44.046Z,4.03
2023-05-22T20:07:11.802Z,4.35
2023-05-22T20:09:40.085Z,4.47
2023-05-22T20:12:09.423Z,5.45
2023-05-22T20:14:37.003Z,6.13
2023-05-22T20:17:05.059Z,6.65
2023-05-22T20:19:32.926Z,6.72
2023-05-22T20:22:00.603Z,7.10
2023-05-22T20:24:28.460Z,7.65
2023-05-22T20:26:55.761Z,7.47
2023-05-22T20:29:25.500Z,7.45
2023-05-22T20:31:53.478Z,7.00
2023-05-22T20:34:20.910Z,7.32
2023-05-22T20:36:48.347Z,6.30
2023-05-22T20:39:15.908Z,6.72
2023-05-22T20:41:43.155Z,6.15
2023-05-22T20:44:10.463Z,5.35
2023-05-22T20:46:39.491Z,5.43
2023-05-22T20:49:06.822Z,5.28
2023-05-22T20:51:34.264Z,5.85
2023-05-22T20:54:02.099Z,5.40
2023-05-22T20:56:29.455Z,5.97
2023-05-22T20:58:57.673Z,5.03
2023-05-22T21:01:25.685Z,5.40
2023-05-22T21:03:55.064Z,4.60
2023-05-22T21:06:22.374Z,5.45
2023-05-22T21:08:52.496Z,5.10
2023-05-22T21:13:48.570Z,4.45
2023-05-22T21:16:16.519Z,4.47
2023-05-22T21:18:43.936Z,4.72
2023-05-22T21:21:14.934Z,4.70
2023-05-22T21:23:42.568Z,4.05
2023-05-22T21:26:09.985Z,4.28
2023-05-22T21:28:37.421Z,4.13
2023-05-22T21:31:05.378Z,3.90
2023-05-22T21:33:32.915Z,4.07
2023-05-22T21:36:00.480Z,4.10
2023-05-22T21:38:30.169Z,4.30
2023-05-22T21:40:57.467Z,3.85
2023-05-22T21:43:25.034Z,3.78
2023-05-22T21:45:52.615Z,3.92
2023-05-22T21:48:19.985Z,3.80
2023-05-22T21:50:47.369Z,4.40
2023-05-22T21:53:14.910Z,3.70
2023-05-22T21:55:43.724Z,4.95
2023-05-22T21:58:14.201Z,4.88
2023-05-22T22:00:42.108Z,5.23
2023-05-22T22:03:09.919Z,5.55
2023-05-22T22:05:37.418Z,5.45
2023-05-22T22:08:05.380Z,4.82
2023-05-22T22:10:32.716Z,4.95
2023-05-22T22:13:01.722Z,4.40
2023-05-22T22:15:30.522Z,4.50
2023-05-22T22:17:59.393Z,4.15
2023-05-22T22:20:42.525Z,3.72
2023-05-22T22:23:13.028Z,4.07
2023-05-22T22:25:40.749Z,4.35
2023-05-22T22:28:09.669Z,4.05
2023-05-22T22:30:37.469Z,4.40
2023-05-22T22:33:04.930Z,4.20
2023-05-22T22:35:32.294Z,4.15
2023-05-22T22:38:00.023Z,4.10
2023-05-22T22:40:27.471Z,4.43
2023-05-22T22:42:54.987Z,4.63
2023-05-22T22:45:24.596Z,3.88
2023-05-22T22:47:51.971Z,3.35
2023-05-22T22:50:19.505Z,3.67
2023-05-22T22:52:47.208Z,3.80
2023-05-22T22:55:14.903Z,3.90
2023-05-22T22:57:42.461Z,3.67
2023-05-22T23:00:10.974Z,3.75
2023-05-22T23:02:40.122Z,4.75
2023-05-22T23:05:08.616Z,4.40
2023-05-22T23:07:36.538Z,4.70
2023-05-22T23:10:05.880Z,4.47
2023-05-22T23:12:33.959Z,4.55
2023-05-22T23:15:02.541Z,6.18
2023-05-22T23:17:30.075Z,5.63
2023-05-22T23:19:58.937Z,6.45
2023-05-22T23:22:26.675Z,6.00
2023-05-22T23:24:54.329Z,6.43
2023-05-22T23:27:22.011Z,6.40
2023-05-22T23:29:49.559Z,5.30
2023-05-22T23:32:16.953Z,5.32
2023-05-22T23:34:44.461Z,4.82
2023-05-22T23:37:13.382Z,4.65
2023-05-22T23:39:40.848Z,4.18
2023-05-22T23:42:08.596Z,4.18
2023-05-22T23:44:36.256Z,4.22
2023-05-22T23:47:04.114Z,4.20
2023-05-22T23:49:31.647Z,4.40
2023-05-22T23:51:59.658Z,3.85
2023-05-22T23:54:28.369Z,4.78
2023-05-22T23:56:56.035Z,4.55
2023-05-22T23:59:23.738Z,4.20
